createdAt,value
2023-04-16T00:00:35.896Z,7.74
2023-04-16T00:01:35.912Z,7.73
2023-04-16T00:02:36.118Z,7.74
2023-04-16T00:03:36.250Z,7.73
2023-04-16T00:04:36.039Z,7.71
2023-04-16T00:07:52.665Z,7.74
2023-04-16T00:08:54.128Z,7.74
2023-04-16T00:09:53.462Z,7.71
2023-04-16T00:10:53.483Z,7.71
2023-04-16T00:11:53.395Z,7.71
2023-04-16T00:12:53.459Z,7.73
2023-04-16T00:13:53.510Z,7.70
2023-04-16T00:14:53.422Z,7.73
2023-04-16T00:15:53.413Z,7.73
2023-04-16T00:16:53.401Z,7.71
2023-04-16T00:17:53.605Z,7.74
2023-04-16T00:18:53.399Z,7.73
2023-04-16T00:19:53.517Z,7.74
2023-04-16T00:20:53.324Z,7.74
2023-04-16T00:21:53.477Z,7.71
2023-04-16T00:22:53.291Z,7.73
2023-04-16T00:23:53.403Z,7.73
2023-04-16T00:24:53.252Z,7.70
2023-04-16T00:25:53.458Z,7.70
2023-04-16T00:26:53.254Z,7.71
2023-04-16T00:27:53.300Z,7.69
2023-04-16T00:28:53.266Z,7.69
2023-04-16T00:29:53.360Z,7.69
2023-04-16T00:30:53.284Z,7.69
2023-04-16T00:31:53.267Z,7.67
2023-04-16T00:32:53.261Z,7.70
2023-04-16T00:33:53.167Z,7.70
2023-04-16T00:34:53.129Z,7.69
2023-04-16T00:35:53.161Z,7.69
2023-04-16T00:36:53.145Z,7.70
2023-04-16T00:37:53.260Z,7.70
2023-04-16T00:38:53.132Z,7.69
2023-04-16T00:39:53.267Z,7.69
2023-04-16T00:40:53.145Z,7.69
2023-04-16T00:41:53.086Z,7.69
2023-04-16T00:42:53.175Z,7.70
2023-04-16T00:43:53.169Z,7.70
2023-04-16T00:44:53.111Z,7.69
2023-04-16T00:45:53.123Z,7.70
2023-04-16T00:46:53.051Z,7.70
2023-04-16T00:47:53.196Z,7.69
2023-04-16T00:48:53.150Z,7.69
2023-04-16T00:49:53.043Z,7.69
2023-04-16T00:50:53.166Z,7.70
2023-04-16T00:51:53.057Z,7.69
2023-04-16T00:52:53.123Z,7.69
2023-04-16T00:53:52.995Z,7.69
2023-04-16T00:54:53.003Z,7.69
2023-04-16T00:55:52.972Z,7.69
2023-04-16T00:56:52.949Z,7.67
2023-04-16T00:57:52.950Z,7.67
2023-04-16T00:58:53.035Z,7.67
2023-04-16T00:59:52.928Z,7.66
2023-04-16T01:00:52.927Z,7.69
2023-04-16T01:01:53.053Z,7.69
2023-04-16T01:02:53.087Z,7.69
2023-04-16T01:03:53.035Z,7.67
2023-04-16T01:04:52.903Z,7.67
2023-04-16T01:05:52.841Z,7.67
2023-04-16T01:06:52.877Z,7.67
2023-04-16T01:07:52.897Z,7.67
2023-04-16T01:08:52.807Z,7.66
2023-04-16T01:09:52.789Z,7.69
2023-04-16T01:10:52.877Z,7.66
2023-04-16T01:11:52.898Z,7.66
2023-04-16T01:12:52.898Z,7.63
2023-04-16T01:13:52.781Z,7.67
2023-04-16T01:14:52.770Z,7.63
2023-04-16T01:15:52.841Z,7.66
2023-04-16T01:16:52.753Z,7.63
2023-04-16T01:17:52.813Z,7.63
2023-04-16T01:18:52.756Z,7.62
2023-04-16T01:19:52.841Z,7.62
2023-04-16T01:20:52.724Z,7.62
2023-04-16T01:21:52.750Z,7.62
2023-04-16T01:22:52.747Z,7.60
2023-04-16T01:23:52.652Z,7.60
2023-04-16T01:24:52.711Z,7.58
2023-04-16T01:25:52.627Z,7.60
2023-04-16T01:26:52.684Z,7.57
2023-04-16T01:27:52.692Z,7.62
2023-04-16T01:28:52.694Z,7.60
2023-04-16T01:29:52.598Z,7.62
2023-04-16T01:30:52.648Z,7.60
2023-04-16T01:31:52.709Z,7.63
2023-04-16T01:32:52.730Z,7.62
2023-04-16T01:33:52.632Z,7.62
2023-04-16T01:34:52.537Z,7.63
2023-04-16T01:35:52.577Z,7.63
2023-04-16T01:36:52.632Z,7.62
2023-04-16T01:37:52.685Z,7.62
2023-04-16T01:38:52.524Z,7.60
2023-04-16T01:39:52.505Z,7.60
2023-04-16T01:40:52.513Z,7.60
2023-04-16T01:41:52.467Z,7.62
2023-04-16T01:42:52.484Z,7.60
2023-04-16T01:43:52.597Z,7.58
2023-04-16T01:44:52.415Z,7.60
2023-04-16T01:45:52.423Z,7.58
2023-04-16T01:46:52.543Z,7.58
2023-04-16T01:47:52.497Z,7.58
2023-04-16T01:48:52.463Z,7.58
2023-04-16T01:49:52.411Z,7.60
2023-04-16T01:50:52.381Z,7.62
2023-04-16T01:51:52.354Z,7.60
2023-04-16T01:52:52.498Z,7.58
2023-04-16T01:53:52.348Z,7.58
2023-04-16T01:54:52.462Z,7.58
2023-04-16T01:55:52.430Z,7.58
2023-04-16T01:56:52.432Z,7.60
2023-04-16T01:57:52.370Z,7.60
2023-04-16T01:58:52.398Z,7.60
2023-04-16T01:59:52.360Z,7.60
2023-04-16T02:00:52.430Z,7.60
2023-04-16T02:01:52.351Z,7.60
2023-04-16T02:02:52.477Z,7.60
2023-04-16T02:03:52.397Z,7.60
2023-04-16T02:04:52.258Z,7.60
2023-04-16T02:05:52.497Z,7.60
2023-04-16T02:06:52.313Z,7.60
2023-04-16T02:07:52.215Z,7.58
2023-04-16T02:08:52.205Z,7.58
2023-04-16T02:09:52.265Z,7.58
2023-04-16T02:11:00.921Z,7.57
2023-04-16T02:11:52.452Z,7.55
2023-04-16T02:12:52.476Z,7.55
2023-04-16T02:13:52.232Z,7.55
2023-04-16T02:14:52.133Z,7.55
2023-04-16T02:15:52.175Z,7.57
2023-04-16T02:16:52.309Z,7.54
2023-04-16T02:17:52.283Z,7.55
2023-04-16T02:18:52.323Z,7.55
2023-04-16T02:19:52.135Z,7.55
2023-04-16T02:20:52.140Z,7.55
2023-04-16T02:21:52.172Z,7.54
2023-04-16T02:22:52.275Z,7.54
2023-04-16T02:23:52.228Z,7.52
2023-04-16T02:24:52.131Z,7.54
2023-04-16T02:25:52.153Z,7.54
2023-04-16T02:26:52.110Z,7.54
2023-04-16T02:27:52.050Z,7.54
2023-04-16T02:28:52.025Z,7.52
2023-04-16T02:29:52.078Z,7.52
2023-04-16T02:30:52.041Z,7.52
2023-04-16T02:31:52.211Z,7.52
2023-04-16T02:32:52.378Z,7.52
2023-04-16T02:33:52.122Z,7.51
2023-04-16T02:34:51.980Z,7.51
2023-04-16T02:35:52.035Z,7.51
2023-04-16T02:36:52.072Z,7.50
2023-04-16T02:37:52.033Z,7.50
2023-04-16T02:38:52.040Z,7.51
2023-04-16T02:39:52.046Z,7.52
2023-04-16T02:40:51.889Z,7.50
2023-04-16T02:41:51.917Z,7.51
2023-04-16T02:42:51.993Z,7.51
2023-04-16T02:43:51.884Z,7.52
2023-04-16T02:44:51.982Z,7.52
2023-04-16T02:45:51.921Z,7.50
2023-04-16T02:46:51.990Z,7.50
2023-04-16T02:47:51.908Z,7.50
2023-04-16T02:48:51.880Z,7.51
2023-04-16T02:49:51.883Z,7.51
2023-04-16T02:50:51.993Z,7.51
2023-04-16T02:51:51.766Z,7.50
2023-04-16T02:52:51.885Z,7.50
2023-04-16T02:53:51.901Z,7.51
2023-04-16T02:54:51.909Z,7.51
2023-04-16T02:55:52.004Z,7.51
2023-04-16T02:56:51.908Z,7.51
2023-04-16T02:57:51.815Z,7.51
2023-04-16T02:58:51.874Z,7.52
2023-04-16T02:59:51.831Z,7.50
2023-04-16T03:00:51.937Z,7.51
2023-04-16T03:01:51.957Z,7.50
2023-04-16T03:02:51.916Z,7.48
2023-04-16T03:05:06.429Z,7.51
2023-04-16T03:06:07.333Z,7.48
2023-04-16T03:07:06.971Z,7.48
2023-04-16T03:08:06.881Z,7.47
2023-04-16T03:09:07.290Z,7.48
2023-04-16T03:10:06.860Z,7.48
2023-04-16T03:11:06.856Z,7.48
2023-04-16T03:12:06.867Z,7.47
2023-04-16T03:13:06.975Z,7.47
2023-04-16T03:14:06.862Z,7.48
2023-04-16T03:15:06.866Z,7.47
2023-04-16T03:16:06.809Z,7.45
2023-04-16T03:17:06.855Z,7.47
2023-04-16T03:18:06.879Z,7.45
2023-04-16T03:19:06.897Z,7.45
2023-04-16T03:20:06.792Z,7.44
2023-04-16T03:21:06.671Z,7.44
2023-04-16T03:22:06.707Z,7.44
2023-04-16T03:23:06.669Z,7.44
2023-04-16T03:24:06.707Z,7.44
2023-04-16T03:25:06.704Z,7.42
2023-04-16T03:26:06.662Z,7.41
2023-04-16T03:27:06.725Z,7.41
2023-04-16T03:30:25.180Z,7.39
2023-04-16T03:31:27.363Z,7.37
2023-04-16T03:32:25.999Z,7.37
2023-04-16T03:33:25.868Z,7.37
2023-04-16T03:34:25.766Z,7.39
2023-04-16T03:35:25.791Z,7.37
2023-04-16T03:36:25.774Z,7.37
2023-04-16T03:37:25.724Z,7.37
2023-04-16T03:38:25.683Z,7.36
2023-04-16T03:39:25.788Z,7.36
2023-04-16T03:40:25.864Z,7.36
2023-04-16T03:41:25.743Z,7.37
2023-04-16T03:42:25.928Z,7.36
2023-04-16T03:43:25.729Z,7.37
2023-04-16T03:44:25.627Z,7.36
2023-04-16T03:45:25.626Z,7.33
2023-04-16T03:46:25.553Z,7.32
2023-04-16T03:47:25.555Z,7.30
2023-04-16T03:48:25.869Z,7.30
2023-04-16T03:49:25.589Z,7.29
2023-04-16T03:50:25.662Z,7.29
2023-04-16T03:51:25.606Z,7.30
2023-04-16T03:52:25.563Z,7.29
2023-04-16T03:53:25.551Z,7.29
2023-04-16T03:54:25.670Z,7.29
2023-04-16T03:55:25.593Z,7.27
2023-04-16T03:56:25.671Z,7.29
2023-04-16T03:57:25.774Z,7.27
2023-04-16T03:58:25.454Z,7.30
2023-04-16T03:59:25.522Z,7.29
2023-04-16T04:00:25.664Z,7.30
2023-04-16T04:01:25.445Z,7.29
2023-04-16T04:02:25.871Z,7.27
2023-04-16T04:03:25.732Z,7.27
2023-04-16T04:04:25.457Z,7.24
2023-04-16T04:05:25.624Z,7.26
2023-04-16T04:06:25.439Z,7.24
2023-04-16T04:07:25.641Z,7.24
2023-04-16T04:08:25.519Z,7.24
2023-04-16T04:09:25.408Z,7.24
2023-04-16T04:10:25.455Z,7.23
2023-04-16T04:11:25.729Z,7.21
2023-04-16T04:12:25.597Z,7.19
2023-04-16T04:13:25.531Z,7.19
2023-04-16T04:14:25.441Z,7.18
2023-04-16T04:15:25.538Z,7.18
2023-04-16T04:16:25.417Z,7.18
2023-04-16T04:17:26.547Z,7.18
2023-04-16T04:18:25.620Z,7.15
2023-04-16T04:19:25.604Z,7.15
2023-04-16T04:20:33.478Z,7.12
2023-04-16T04:21:25.648Z,7.11
2023-04-16T04:22:25.233Z,7.12
2023-04-16T04:23:25.395Z,7.11
2023-04-16T04:24:25.557Z,7.12
2023-04-16T04:25:25.568Z,7.11
2023-04-16T04:26:25.590Z,7.12
2023-04-16T04:27:25.228Z,7.12
2023-04-16T04:28:26.079Z,7.12
2023-04-16T04:30:38.645Z,7.11
2023-04-16T04:31:39.061Z,7.07
2023-04-16T04:32:38.856Z,7.05
2023-04-16T04:33:39.004Z,7.04
2023-04-16T04:34:38.766Z,7.01
2023-04-16T04:35:38.790Z,7.01
2023-04-16T04:36:38.790Z,7.01
2023-04-16T04:37:38.826Z,7.00
2023-04-16T04:38:38.769Z,7.00
2023-04-16T04:39:38.768Z,7.01
2023-04-16T04:40:38.815Z,7.00
2023-04-16T04:41:38.728Z,6.99
2023-04-16T04:42:38.700Z,6.99
2023-04-16T04:43:38.681Z,6.99
2023-04-16T04:44:38.641Z,7.00
2023-04-16T04:45:38.756Z,6.99
2023-04-16T04:46:38.716Z,6.96
2023-04-16T04:47:38.758Z,6.93
2023-04-16T04:48:38.877Z,6.90
2023-04-16T04:49:38.623Z,6.87
2023-04-16T04:50:38.718Z,6.89
2023-04-16T04:51:38.601Z,6.83
2023-04-16T04:52:38.628Z,6.81
2023-04-16T04:53:38.697Z,6.82
2023-04-16T04:54:38.659Z,6.81
2023-04-16T04:55:38.614Z,6.82
2023-04-16T04:56:38.524Z,6.81
2023-04-16T04:57:38.582Z,6.81
2023-04-16T04:58:38.527Z,6.81
2023-04-16T04:59:38.548Z,6.82
2023-04-16T05:00:38.476Z,6.82
2023-04-16T05:01:38.786Z,6.82
2023-04-16T05:02:38.549Z,6.79
2023-04-16T05:03:38.682Z,6.81
2023-04-16T05:04:38.456Z,6.82
2023-04-16T05:05:38.573Z,6.79
2023-04-16T05:06:38.456Z,6.81
2023-04-16T05:07:38.625Z,6.82
2023-04-16T05:08:38.311Z,6.83
2023-04-16T05:09:39.217Z,6.82
2023-04-16T05:10:38.348Z,6.83
2023-04-16T05:11:38.472Z,6.82
2023-04-16T05:12:38.350Z,6.81
2023-04-16T05:13:38.413Z,6.79
2023-04-16T05:14:38.462Z,6.81
2023-04-16T05:15:38.430Z,6.79
2023-04-16T05:16:38.505Z,6.78
2023-04-16T05:17:38.440Z,6.79
2023-04-16T05:18:38.312Z,6.78
2023-04-16T05:19:38.195Z,6.79
2023-04-16T05:20:38.286Z,6.78
2023-04-16T05:21:38.264Z,6.79
2023-04-16T05:22:38.430Z,6.79
2023-04-16T05:23:38.379Z,6.79
2023-04-16T05:24:38.290Z,6.79
2023-04-16T05:25:38.352Z,6.79
2023-04-16T05:26:38.305Z,6.81
2023-04-16T05:27:38.249Z,6.81
2023-04-16T05:28:38.550Z,6.78
2023-04-16T05:29:38.387Z,6.79
2023-04-16T05:30:38.230Z,6.78
2023-04-16T05:31:38.222Z,6.78
2023-04-16T05:32:38.175Z,6.76
2023-04-16T05:33:38.182Z,6.76
2023-04-16T05:34:38.132Z,6.72
2023-04-16T05:35:38.304Z,6.73
2023-04-16T05:36:38.212Z,6.72
2023-04-16T05:37:38.300Z,6.72
2023-04-16T05:38:38.320Z,6.72
2023-04-16T05:39:38.141Z,6.72
2023-04-16T05:40:38.115Z,6.69
2023-04-16T05:41:38.165Z,6.69
2023-04-16T05:42:38.176Z,6.69
2023-04-16T05:43:38.006Z,6.68
2023-04-16T05:44:38.164Z,6.63
2023-04-16T05:45:38.110Z,6.64
2023-04-16T05:46:38.474Z,6.63
2023-04-16T05:47:38.127Z,6.63
2023-04-16T05:48:38.062Z,6.64
2023-04-16T05:49:38.082Z,6.64
2023-04-16T05:50:38.053Z,6.64
2023-04-16T05:51:38.103Z,6.64
2023-04-16T05:52:37.920Z,6.61
2023-04-16T05:53:37.925Z,6.58
2023-04-16T05:54:37.975Z,6.57
2023-04-16T05:55:37.915Z,6.55
2023-04-16T05:56:37.996Z,6.57
2023-04-16T05:57:37.936Z,6.54
2023-04-16T05:58:38.062Z,6.54
2023-04-16T05:59:38.133Z,6.53
2023-04-16T06:00:38.056Z,6.54
2023-04-16T06:01:37.911Z,6.53
2023-04-16T06:02:38.103Z,6.53
2023-04-16T06:03:37.957Z,6.53
2023-04-16T06:04:37.955Z,6.53
2023-04-16T06:05:37.857Z,6.51
2023-04-16T06:06:37.848Z,6.50
2023-04-16T06:07:38.211Z,6.48
2023-04-16T06:08:37.905Z,6.45
2023-04-16T06:09:37.809Z,6.45
2023-04-16T06:10:37.792Z,6.42
2023-04-16T06:11:37.713Z,6.40
2023-04-16T06:12:37.796Z,6.39
2023-04-16T06:13:37.798Z,6.40
2023-04-16T06:14:37.725Z,6.39
2023-04-16T06:15:37.864Z,6.39
2023-04-16T06:16:37.869Z,6.38
2023-04-16T06:17:38.076Z,6.40
2023-04-16T06:18:37.756Z,6.40
2023-04-16T06:19:37.609Z,6.38
2023-04-16T06:20:37.964Z,6.40
2023-04-16T06:21:37.665Z,6.42
2023-04-16T06:22:37.779Z,6.40
2023-04-16T06:23:37.633Z,6.42
2023-04-16T06:24:37.676Z,6.43
2023-04-16T06:25:37.609Z,6.45
2023-04-16T06:26:37.764Z,6.45
2023-04-16T06:27:37.772Z,6.45
2023-04-16T06:28:37.888Z,6.48
2023-04-16T06:29:41.682Z,6.48
2023-04-16T06:30:37.882Z,6.50
2023-04-16T06:31:37.573Z,6.48
2023-04-16T06:32:37.587Z,6.45
2023-04-16T06:33:37.562Z,6.45
2023-04-16T06:34:37.509Z,6.45
2023-04-16T06:35:37.751Z,6.48
2023-04-16T06:36:37.430Z,6.48
2023-04-16T06:37:37.670Z,6.48
2023-04-16T06:38:37.487Z,6.48
2023-04-16T06:39:37.473Z,6.46
2023-04-16T06:40:37.585Z,6.45
2023-04-16T06:41:37.527Z,6.45
2023-04-16T06:42:37.548Z,6.46
2023-04-16T06:43:37.591Z,6.46
2023-04-16T06:44:37.470Z,6.46
2023-04-16T06:45:37.576Z,6.46
2023-04-16T06:46:37.770Z,6.46
2023-04-16T06:47:37.703Z,6.50
2023-04-16T06:48:37.530Z,6.50
2023-04-16T06:49:38.004Z,6.51
2023-04-16T06:50:37.422Z,6.53
2023-04-16T06:51:37.384Z,6.53
2023-04-16T06:52:37.399Z,6.53
2023-04-16T06:53:37.312Z,6.55
2023-04-16T06:54:37.356Z,6.54
2023-04-16T06:55:37.508Z,6.55
2023-04-16T06:56:37.372Z,6.54
2023-04-16T06:57:37.725Z,6.57
2023-04-16T06:58:37.258Z,6.53
2023-04-16T06:59:37.430Z,6.53
2023-04-16T07:00:37.424Z,6.54
2023-04-16T07:01:37.261Z,6.53
2023-04-16T07:02:37.356Z,6.54
2023-04-16T07:03:37.504Z,6.55
2023-04-16T07:04:37.260Z,6.55
2023-04-16T07:05:37.472Z,6.54
2023-04-16T07:06:37.838Z,6.58
2023-04-16T07:07:37.151Z,6.60
2023-04-16T07:08:37.369Z,6.61
2023-04-16T07:09:37.922Z,6.64
2023-04-16T07:10:37.157Z,6.64
2023-04-16T07:11:37.123Z,6.63
2023-04-16T07:12:37.184Z,6.61
2023-04-16T07:13:37.218Z,6.60
2023-04-16T07:14:37.272Z,6.63
2023-04-16T07:15:37.152Z,6.64
2023-04-16T07:16:37.299Z,6.63
2023-04-16T07:17:37.239Z,6.63
2023-04-16T07:18:37.349Z,6.64
2023-04-16T07:19:37.283Z,6.68
2023-04-16T07:20:37.425Z,6.69
2023-04-16T07:21:37.327Z,6.71
2023-04-16T07:22:37.630Z,6.72
2023-04-16T07:23:37.089Z,6.73
2023-04-16T07:24:37.226Z,6.75
2023-04-16T07:25:37.140Z,6.72
2023-04-16T07:26:36.951Z,6.69
2023-04-16T07:27:37.566Z,6.69
2023-04-16T07:28:37.376Z,6.72
2023-04-16T07:29:37.415Z,6.69
2023-04-16T07:30:37.104Z,6.73
2023-04-16T07:31:37.308Z,6.72
2023-04-16T07:32:37.228Z,6.73
2023-04-16T07:34:51.546Z,6.76
2023-04-16T07:35:51.934Z,6.76
2023-04-16T07:36:51.828Z,6.81
2023-04-16T07:37:51.806Z,6.79
2023-04-16T07:38:51.925Z,6.79
2023-04-16T07:39:51.685Z,6.81
2023-04-16T07:40:52.039Z,6.79
2023-04-16T07:41:51.776Z,6.78
2023-04-16T07:42:51.776Z,6.73
2023-04-16T07:43:51.889Z,6.75
2023-04-16T07:44:51.648Z,6.72
2023-04-16T07:45:51.724Z,6.69
2023-04-16T07:46:51.654Z,6.69
2023-04-16T07:47:51.757Z,6.72
2023-04-16T07:48:51.714Z,6.71
2023-04-16T07:49:51.738Z,6.75
2023-04-16T07:50:51.858Z,6.78
2023-04-16T07:51:51.726Z,6.82
2023-04-16T07:52:51.914Z,6.82
2023-04-16T07:53:51.559Z,6.82
2023-04-16T07:54:51.528Z,6.82
2023-04-16T07:55:51.474Z,6.81
2023-04-16T07:56:51.416Z,6.82
2023-04-16T07:57:51.546Z,6.83
2023-04-16T07:58:51.469Z,6.86
2023-04-16T07:59:51.463Z,6.86
2023-04-16T08:00:51.389Z,6.87
2023-04-16T08:01:51.887Z,6.87
2023-04-16T08:02:51.804Z,6.83
2023-04-16T08:03:51.518Z,6.86
2023-04-16T08:04:51.948Z,6.89
2023-04-16T08:07:04.436Z,6.91
2023-04-16T08:08:05.498Z,6.90
2023-04-16T08:09:05.290Z,6.87
2023-04-16T08:10:05.118Z,6.86
2023-04-16T08:11:05.161Z,6.89
2023-04-16T08:12:05.204Z,6.89
2023-04-16T08:13:05.397Z,6.86
2023-04-16T08:16:24.046Z,6.91
2023-04-16T08:17:24.125Z,6.90
2023-04-16T08:18:23.493Z,6.91
2023-04-16T08:19:23.906Z,6.93
2023-04-16T08:20:25.198Z,6.91
2023-04-16T08:21:24.621Z,6.91
2023-04-16T08:22:25.480Z,6.93
2023-04-16T08:23:24.498Z,6.93
2023-04-16T08:25:35.275Z,6.93
2023-04-16T08:26:36.023Z,6.93
2023-04-16T08:27:36.158Z,6.93
2023-04-16T08:28:35.733Z,6.93
2023-04-16T08:29:35.820Z,6.94
2023-04-16T08:30:35.790Z,6.96
2023-04-16T08:31:35.570Z,6.99
2023-04-16T08:32:35.601Z,7.01
2023-04-16T08:33:35.796Z,7.01
2023-04-16T08:34:35.598Z,7.05
2023-04-16T08:35:35.537Z,7.08
2023-04-16T08:36:35.486Z,7.12
2023-04-16T08:37:35.522Z,7.14
2023-04-16T08:38:35.467Z,7.15
2023-04-16T08:39:35.648Z,7.18
2023-04-16T08:40:35.516Z,7.18
2023-04-16T09:28:11.854Z,7.74
2023-04-16T09:29:11.780Z,7.74
2023-04-16T09:30:11.872Z,7.73
2023-04-16T09:31:11.662Z,7.74
2023-04-16T09:32:11.709Z,7.77
2023-04-16T09:33:11.656Z,7.82
2023-04-16T09:34:11.680Z,7.82
2023-04-16T09:35:11.604Z,7.86
2023-04-16T09:36:13.172Z,7.89
2023-04-16T09:37:11.590Z,7.92
2023-04-16T09:38:11.574Z,7.94
2023-04-16T09:39:11.901Z,7.92
2023-04-16T09:40:11.554Z,7.92
2023-04-16T09:41:11.651Z,7.91
2023-04-16T09:42:11.506Z,7.91
2023-04-16T09:43:11.507Z,7.91
2023-04-16T09:44:11.560Z,7.91
2023-04-16T09:45:11.433Z,7.89
2023-04-16T09:46:11.594Z,7.89
2023-04-16T09:47:12.214Z,7.91
2023-04-16T09:48:11.568Z,7.91
2023-04-16T09:49:11.767Z,7.91
2023-04-16T09:50:12.836Z,7.92
2023-04-16T09:51:11.578Z,7.92
2023-04-16T09:52:11.423Z,7.89
2023-04-16T09:53:11.384Z,7.91
2023-04-16T09:54:11.372Z,7.91
2023-04-16T09:55:11.407Z,7.89
2023-04-16T09:56:11.470Z,7.89
2023-04-16T09:57:11.345Z,7.88
2023-04-16T09:58:11.729Z,7.86
2023-04-16T09:59:11.563Z,7.88
2023-04-16T10:00:11.687Z,7.88
2023-04-16T10:01:11.375Z,7.89
2023-04-16T10:02:14.531Z,7.89
2023-04-16T10:03:11.366Z,7.94
2023-04-16T10:04:11.351Z,7.95
2023-04-16T10:05:11.232Z,7.95
2023-04-16T10:06:11.289Z,7.95
2023-04-16T10:07:11.273Z,7.94
2023-04-16T10:08:11.193Z,7.95
2023-04-16T10:09:11.426Z,7.92
2023-04-16T10:10:11.210Z,7.95
2023-04-16T10:11:11.190Z,7.95
2023-04-16T10:12:11.206Z,7.95
2023-04-16T10:13:11.474Z,7.96
2023-04-16T10:14:11.133Z,7.96
2023-04-16T10:15:11.163Z,7.95
2023-04-16T10:16:11.132Z,7.95
2023-04-16T10:17:11.354Z,7.96
2023-04-16T10:18:11.186Z,7.99
2023-04-16T10:19:11.314Z,8.00
2023-04-16T10:20:11.170Z,8.00
2023-04-16T10:21:11.178Z,8.02
2023-04-16T10:22:11.070Z,8.02
2023-04-16T10:23:11.211Z,8.04
2023-04-16T10:24:11.016Z,8.09
2023-04-16T10:25:11.056Z,8.12
2023-04-16T10:26:11.026Z,8.10
2023-04-16T10:27:11.014Z,8.13
2023-04-16T10:28:10.984Z,8.17
2023-04-16T10:29:11.077Z,8.21
2023-04-16T10:30:10.988Z,8.20
2023-04-16T10:31:11.081Z,8.20
2023-04-16T10:32:10.948Z,8.21
2023-04-16T10:33:10.956Z,8.22
2023-04-16T10:34:10.930Z,8.25
2023-04-16T10:35:10.955Z,8.27
2023-04-16T10:36:11.022Z,8.28
2023-04-16T10:37:10.886Z,8.28
2023-04-16T10:38:10.863Z,8.25
2023-04-16T10:39:11.190Z,8.24
2023-04-16T10:40:10.838Z,8.21
2023-04-16T10:41:10.835Z,8.21
2023-04-16T10:42:10.846Z,8.20
2023-04-16T10:43:10.805Z,8.20
2023-04-16T10:44:10.838Z,8.17
2023-04-16T10:45:10.794Z,8.20
2023-04-16T10:46:10.849Z,8.18
2023-04-16T10:47:10.777Z,8.17
2023-04-16T10:48:10.773Z,8.18
2023-04-16T10:49:11.077Z,8.14
2023-04-16T10:50:10.729Z,8.17
2023-04-16T10:51:10.767Z,8.17
2023-04-16T10:52:10.732Z,8.17
2023-04-16T10:53:10.845Z,8.18
2023-04-16T10:54:10.899Z,8.18
2023-04-16T10:55:10.783Z,8.20
2023-04-16T10:56:10.765Z,8.21
2023-04-16T10:57:10.758Z,8.21
2023-04-16T10:58:10.651Z,8.21
2023-04-16T10:59:11.417Z,8.21
2023-04-16T11:00:10.626Z,8.24
2023-04-16T11:01:10.670Z,8.25
2023-04-16T11:02:10.724Z,8.27
2023-04-16T11:03:10.717Z,8.29
2023-04-16T11:04:10.816Z,8.32
2023-04-16T11:05:10.590Z,8.36
2023-04-16T11:06:10.583Z,8.39
2023-04-16T11:07:10.576Z,8.39
2023-04-16T11:08:10.597Z,8.40
2023-04-16T11:09:10.794Z,8.43
2023-04-16T11:10:10.564Z,8.45
2023-04-16T11:11:10.519Z,8.46
2023-04-16T11:12:10.497Z,8.47
2023-04-16T11:13:10.520Z,8.47
2023-04-16T11:14:10.547Z,8.49
2023-04-16T11:15:12.992Z,8.52
2023-04-16T11:16:10.460Z,8.52
2023-04-16T11:17:10.518Z,8.52
2023-04-16T11:18:10.508Z,8.54
2023-04-16T11:19:10.567Z,8.52
2023-04-16T11:20:17.516Z,8.54
2023-04-16T11:21:10.435Z,8.52
2023-04-16T11:22:10.409Z,8.52
2023-04-16T11:23:10.413Z,8.49
2023-04-16T11:24:10.413Z,8.49
2023-04-16T11:25:10.415Z,8.49
2023-04-16T11:26:10.408Z,8.49
2023-04-16T11:27:10.341Z,8.47
2023-04-16T11:28:10.323Z,8.47
2023-04-16T11:29:10.760Z,8.46
2023-04-16T11:30:10.339Z,8.45
2023-04-16T11:31:10.314Z,8.46
2023-04-16T11:32:10.343Z,8.43
2023-04-16T11:33:10.314Z,8.45
2023-04-16T11:34:10.363Z,8.42
2023-04-16T11:35:10.565Z,8.42
2023-04-16T11:36:10.309Z,8.42
2023-04-16T11:37:10.274Z,8.42
2023-04-16T11:38:10.266Z,8.40
2023-04-16T11:39:10.515Z,8.40
2023-04-16T11:40:10.237Z,8.42
2023-04-16T11:41:10.220Z,8.43
2023-04-16T11:42:10.231Z,8.43
2023-04-16T11:43:10.186Z,8.43
2023-04-16T11:44:10.176Z,8.43
2023-04-16T11:45:10.320Z,8.42
2023-04-16T11:46:20.117Z,8.40
2023-04-16T11:47:10.200Z,8.40
2023-04-16T11:48:11.191Z,8.37
2023-04-16T11:49:10.312Z,8.39
2023-04-16T11:50:10.099Z,8.40
2023-04-16T11:51:10.182Z,8.40
2023-04-16T11:52:10.109Z,8.42
2023-04-16T11:53:10.123Z,8.42
2023-04-16T11:54:12.051Z,8.42
2023-04-16T11:55:10.070Z,8.43
2023-04-16T11:56:10.417Z,8.43
2023-04-16T11:57:10.126Z,8.45
2023-04-16T11:58:10.024Z,8.47
2023-04-16T11:59:10.410Z,8.47
2023-04-16T12:00:10.721Z,8.49
2023-04-16T12:01:10.029Z,8.49
2023-04-16T12:02:10.124Z,8.47
2023-04-16T13:07:24.676Z,8.49
2023-04-16T13:08:05.170Z,8.49
2023-04-16T13:09:04.696Z,8.50
2023-04-16T13:10:04.701Z,8.50
2023-04-16T13:11:04.620Z,8.49
2023-04-16T13:12:04.633Z,8.47
2023-04-16T13:51:46.833Z,8.83
2023-04-16T13:52:46.135Z,8.85
2023-04-16T13:53:45.830Z,8.85
2023-04-16T13:54:45.915Z,8.86
2023-04-16T13:55:45.747Z,8.86
2023-04-16T14:52:38.147Z,8.68
2023-04-16T14:53:17.982Z,8.70
2023-04-16T14:54:17.984Z,8.68
2023-04-16T14:55:17.973Z,8.70
2023-04-16T14:56:17.943Z,8.67
2023-04-16T14:57:17.960Z,8.65
2023-04-16T14:58:17.981Z,8.64
2023-04-16T14:59:17.942Z,8.63
2023-04-16T15:00:18.838Z,8.63
2023-04-16T15:01:18.945Z,8.64
2023-04-16T15:02:17.962Z,8.63
2023-04-16T15:03:18.060Z,8.65
2023-04-16T15:04:18.081Z,8.64
2023-04-16T15:05:18.228Z,8.68
2023-04-16T15:06:17.853Z,8.71
2023-04-16T15:07:18.401Z,8.71
2023-04-16T15:08:17.823Z,8.75
2023-04-16T15:09:17.813Z,8.78
2023-04-16T15:10:18.722Z,8.78
2023-04-16T15:11:17.794Z,8.80
2023-04-16T15:12:19.221Z,8.82
2023-04-16T15:13:17.781Z,8.85
2023-04-16T15:14:18.277Z,8.85
2023-04-16T15:15:18.357Z,8.85
2023-04-16T15:16:17.867Z,8.88
2023-04-16T15:17:17.893Z,8.88
2023-04-16T15:18:17.910Z,8.86
2023-04-16T15:19:17.727Z,8.88
2023-04-16T15:20:17.700Z,8.89
2023-04-16T15:21:18.327Z,8.89
2023-04-16T15:22:17.716Z,8.91
2023-04-16T15:23:17.675Z,8.91
2023-04-16T15:24:17.665Z,8.91
2023-04-16T15:25:17.649Z,8.91
2023-04-16T15:26:17.640Z,8.94
2023-04-16T15:27:17.625Z,8.94
2023-04-16T15:28:17.645Z,8.93
2023-04-16T15:29:17.633Z,8.94
2023-04-16T15:30:17.624Z,8.93
2023-04-16T15:31:17.711Z,8.96
2023-04-16T15:32:17.583Z,8.96
2023-04-16T15:33:17.574Z,8.94
2023-04-16T15:34:17.609Z,8.94
2023-04-16T15:35:18.345Z,8.94
2023-04-16T15:36:17.536Z,8.96
2023-04-16T15:37:17.536Z,8.97
2023-04-16T15:38:17.523Z,8.97
2023-04-16T15:39:17.524Z,8.98
2023-04-16T15:40:17.526Z,8.98
2023-04-16T15:41:17.494Z,9.01
2023-04-16T15:42:17.479Z,9.01
2023-04-16T15:43:17.466Z,9.01
2023-04-16T15:44:17.507Z,9.06
2023-04-16T15:45:17.428Z,9.06
2023-04-16T15:46:17.537Z,9.08
2023-04-16T15:47:17.449Z,9.08
2023-04-16T15:48:17.488Z,9.10
2023-04-16T15:49:17.406Z,9.08
2023-04-16T15:50:17.406Z,9.08
2023-04-16T15:51:17.376Z,9.10
2023-04-16T15:52:17.511Z,9.12
2023-04-16T15:53:17.730Z,9.15
2023-04-16T15:54:17.397Z,9.13
2023-04-16T15:55:17.499Z,9.16
2023-04-16T15:56:17.384Z,9.16
2023-04-16T15:57:17.363Z,9.15
2023-04-16T15:58:17.312Z,9.15
2023-04-16T15:59:17.337Z,9.15
2023-04-16T16:00:17.344Z,9.16
2023-04-16T16:01:17.349Z,9.17
2023-04-16T16:02:17.511Z,9.17
2023-04-16T16:03:17.585Z,9.19
2023-04-16T16:04:17.636Z,9.22
2023-04-16T16:05:17.484Z,9.22
2023-04-16T16:06:17.495Z,9.22
2023-04-16T16:07:17.350Z,9.23
2023-04-16T16:08:17.578Z,9.24
2023-04-16T16:09:17.245Z,9.23
2023-04-16T16:10:17.354Z,9.24
2023-04-16T16:11:18.649Z,9.24
2023-04-16T16:12:17.484Z,9.24
2023-04-16T16:13:17.217Z,9.26
2023-04-16T16:14:18.718Z,9.24
2023-04-16T16:15:17.282Z,9.24
2023-04-16T16:16:17.563Z,9.24
2023-04-16T16:17:17.451Z,9.24
2023-04-16T16:18:17.116Z,9.26
2023-04-16T16:19:17.324Z,9.27
2023-04-16T16:20:17.143Z,9.26
2023-04-16T16:21:17.870Z,9.27
2023-04-16T16:22:17.108Z,9.24
2023-04-16T16:23:17.162Z,9.24
2023-04-16T16:24:18.045Z,9.24
2023-04-16T16:25:17.549Z,9.24
2023-04-16T16:26:17.826Z,9.24
2023-04-16T16:27:17.048Z,9.24
2023-04-16T16:28:17.110Z,9.23
2023-04-16T16:29:17.836Z,9.20
2023-04-16T16:30:16.974Z,9.22
2023-04-16T16:31:17.121Z,9.20
2023-04-16T16:32:17.017Z,9.22
2023-04-16T16:33:17.022Z,9.20
2023-04-16T16:34:20.796Z,9.20
2023-04-16T16:35:17.030Z,9.22
2023-04-16T16:36:18.094Z,9.22
2023-04-16T16:37:16.983Z,9.22
2023-04-16T16:38:17.042Z,9.23
2023-04-16T16:39:16.885Z,9.22
2023-04-16T16:40:17.963Z,9.22
2023-04-16T16:41:16.958Z,9.20
2023-04-16T16:42:17.396Z,9.19
2023-04-16T16:43:16.991Z,9.20
2023-04-16T16:44:17.014Z,9.20
2023-04-16T16:45:16.921Z,9.19
2023-04-16T16:46:16.927Z,9.20
2023-04-16T16:47:16.913Z,9.20
2023-04-16T16:48:16.862Z,9.22
2023-04-16T16:49:17.011Z,9.22
2023-04-16T16:50:16.846Z,9.22
2023-04-16T16:51:16.790Z,9.17
2023-04-16T16:52:16.757Z,9.17
2023-04-16T16:53:16.749Z,9.17
2023-04-16T16:54:16.776Z,9.16
2023-04-16T16:55:18.682Z,9.17
2023-04-16T16:56:16.699Z,9.16